Terminal Aerodrome Forecast
Issued by NWS

Home | Current Version | Previous Version | Text Only | Print | Product List | Glossary On
Versions: 1 2 3 4 5 6 7 8 9 10 11 12 13 14 15
025
FTUS44 KMAF 261731
TAFINK
TAF
KINK 261731Z 2618/2718 15011KT P6SM FEW250
      TEMPO 2619/2623 17010G20KT=

USA.gov is the U.S. government's official web portal to all federal, state and local government web resources and services.